createdAt,value
2023-02-09T00:01:53.353Z,0.00
2023-02-09T00:04:38.694Z,-0.10
2023-02-09T00:07:24.114Z,0.00
2023-02-09T00:10:10.052Z,0.00
2023-02-09T00:13:14.021Z,0.00
2023-02-09T00:16:04.335Z,0.00
2023-02-09T00:18:49.800Z,0.00
2023-02-09T00:21:35.518Z,-0.10
2023-02-09T00:24:21.071Z,-0.10
2023-02-09T00:27:06.152Z,-0.10
2023-02-09T00:29:51.617Z,-0.10
2023-02-09T00:32:37.109Z,-0.10
2023-02-09T00:35:22.724Z,-0.10
2023-02-09T00:40:54.577Z,-0.30
2023-02-09T00:43:40.330Z,-0.40
2023-02-09T00:46:25.474Z,-0.40
2023-02-09T00:49:10.717Z,-0.40
2023-02-09T00:51:56.700Z,-0.40
2023-02-09T01:05:45.769Z,-0.50
2023-02-09T01:08:30.997Z,-0.60
2023-02-09T01:11:16.955Z,-0.60
2023-02-09T01:14:04.225Z,-0.60
2023-02-09T01:16:49.191Z,-0.60
2023-02-09T01:19:35.466Z,-0.60
2023-02-09T01:22:21.430Z,-0.60
2023-02-09T01:25:08.635Z,-0.60
2023-02-09T01:27:53.985Z,-0.70
2023-02-09T01:30:39.446Z,-0.80
2023-02-09T01:33:25.064Z,-0.70
2023-02-09T01:52:49.629Z,-0.80
2023-02-09T01:55:47.315Z,-1.00
2023-02-09T01:58:33.248Z,-1.00
2023-02-09T02:01:18.660Z,-1.00
2023-02-09T02:04:04.720Z,-0.90
2023-02-09T02:06:52.248Z,-0.90
2023-02-09T02:09:37.637Z,-1.00
2023-02-09T02:12:23.943Z,-0.90
2023-02-09T02:15:09.419Z,-0.90
2023-02-09T02:18:09.560Z,-1.00
2023-02-09T02:24:29.725Z,-1.00
2023-02-09T02:27:18.076Z,-1.10
2023-02-09T02:30:18.168Z,-1.10
2023-02-09T02:33:29.328Z,-1.10
2023-02-09T02:36:28.486Z,-1.20
2023-02-09T02:39:25.873Z,-1.10
2023-02-09T02:42:45.009Z,-1.20
2023-02-09T02:45:40.065Z,-1.10
2023-02-09T02:48:53.743Z,-1.10
2023-02-09T02:51:48.460Z,-1.10
2023-02-09T03:17:41.625Z,-1.20
2023-02-09T03:20:43.619Z,-1.30
2023-02-09T03:26:25.192Z,-1.40
2023-02-09T03:29:12.698Z,-1.50
2023-02-09T03:31:58.707Z,-1.40
2023-02-09T03:34:45.165Z,-1.40
2023-02-09T03:37:30.490Z,-1.30
2023-02-09T03:40:15.925Z,-1.30
2023-02-09T03:43:01.403Z,-1.30
2023-02-09T03:45:46.600Z,-1.30
2023-02-09T03:48:31.927Z,-1.30
2023-02-09T03:51:17.284Z,-1.40
2023-02-09T05:56:04.256Z,-1.50
2023-02-09T05:58:49.645Z,-1.80
2023-02-09T06:01:35.290Z,-1.90
2023-02-09T06:04:20.594Z,-1.90
2023-02-09T06:07:06.004Z,-1.90
2023-02-09T06:09:51.281Z,-1.90
2023-02-09T06:12:36.569Z,-1.90
2023-02-09T06:15:22.169Z,-2.00
2023-02-09T06:18:07.496Z,-1.90
2023-02-09T06:20:54.059Z,-1.90
2023-02-09T06:23:39.928Z,-2.00
2023-02-09T06:26:25.087Z,-1.90
2023-02-09T06:29:10.697Z,-1.90
2023-02-09T06:31:55.793Z,-1.90
2023-02-09T06:34:41.075Z,-1.90
2023-02-09T06:37:26.339Z,-2.00
2023-02-09T06:40:12.153Z,-2.00
2023-02-09T06:42:57.295Z,-1.90
2023-02-09T06:45:42.705Z,-2.00
2023-02-09T06:48:28.169Z,-2.00
2023-02-09T06:51:15.183Z,-2.00
2023-02-09T06:54:00.562Z,-2.10
2023-02-09T07:07:49.508Z,-2.10
2023-02-09T08:17:29.362Z,-2.20
2023-02-09T08:20:20.278Z,-1.40
2023-02-09T08:23:30.050Z,-1.40
2023-02-09T08:26:15.260Z,-1.50
2023-02-09T08:29:00.792Z,-1.40
2023-02-09T08:31:46.196Z,-1.40
2023-02-09T08:34:31.415Z,-1.40
2023-02-09T08:37:16.809Z,-1.40
2023-02-09T08:40:02.006Z,-1.40
2023-02-09T08:42:47.682Z,-1.30
2023-02-09T08:45:38.926Z,-1.30
2023-02-09T08:48:24.512Z,-1.30
2023-02-09T08:51:13.020Z,-1.40
2023-02-09T08:53:58.025Z,-1.40
2023-02-09T08:56:44.156Z,-1.20
2023-02-09T08:59:29.324Z,-1.20
2023-02-09T09:02:14.584Z,-1.10
2023-02-09T09:04:59.947Z,-1.10
2023-02-09T09:07:45.402Z,-1.00
2023-02-09T09:10:31.058Z,-1.00
2023-02-09T09:13:16.352Z,-1.10
2023-02-09T09:16:03.680Z,-1.00
2023-02-09T09:21:36.119Z,-0.90
2023-02-09T09:24:23.181Z,-0.60
2023-02-09T09:27:10.343Z,-0.70
2023-02-09T09:29:55.900Z,-0.60
2023-02-09T09:32:41.376Z,-0.50
2023-02-09T09:35:27.757Z,-0.40
2023-02-09T09:38:12.914Z,-0.30
2023-02-09T09:40:58.308Z,-0.30
2023-02-09T09:43:43.902Z,-0.10
2023-02-09T09:46:51.445Z,0.10
2023-02-09T09:49:37.867Z,0.20
2023-02-09T09:52:36.153Z,0.40
2023-02-09T09:55:32.338Z,0.60
2023-02-09T09:58:18.761Z,0.60
2023-02-09T10:01:04.485Z,0.70
2023-02-09T10:03:49.792Z,0.90
2023-02-09T10:06:35.080Z,0.90
2023-02-09T10:09:39.129Z,1.00
2023-02-09T10:12:37.955Z,1.00
2023-02-09T10:15:34.730Z,0.90
2023-02-09T10:18:25.270Z,1.00
2023-02-09T10:21:15.928Z,1.20
2023-02-09T10:24:01.048Z,1.30
2023-02-09T10:27:06.148Z,1.60
2023-02-09T10:29:51.772Z,1.60
2023-02-09T10:32:41.006Z,1.90
2023-02-09T10:35:41.289Z,1.70
2023-02-09T10:38:33.135Z,1.80
2023-02-09T10:41:21.039Z,1.70
2023-02-09T10:44:26.473Z,1.60
2023-02-09T10:47:28.898Z,1.80
2023-02-09T10:50:18.188Z,1.90
2023-02-09T10:53:19.199Z,1.80
2023-02-09T10:56:20.548Z,2.10
2023-02-09T10:59:20.732Z,2.40
2023-02-09T11:02:35.997Z,2.20
2023-02-09T11:05:21.264Z,2.30
2023-02-09T11:08:20.678Z,2.40
2023-02-09T11:11:11.119Z,2.60
2023-02-09T11:13:56.714Z,2.90
2023-02-09T11:16:46.230Z,3.00
2023-02-09T11:19:55.766Z,3.30
2023-02-09T11:23:21.241Z,3.40
2023-02-09T11:26:25.719Z,3.30
2023-02-09T11:29:30.282Z,3.40
2023-02-09T11:32:25.237Z,3.50
2023-02-09T11:35:12.689Z,3.50
2023-02-09T11:38:05.344Z,3.50
2023-02-09T11:40:55.612Z,3.60
2023-02-09T11:43:43.206Z,3.80
2023-02-09T11:46:33.280Z,4.10
2023-02-09T11:49:21.278Z,4.20
2023-02-09T11:52:09.275Z,4.30
2023-02-09T11:54:59.540Z,4.30
2023-02-09T11:57:50.423Z,4.20
2023-02-09T12:00:56.011Z,4.30
2023-02-09T12:04:21.871Z,4.40
2023-02-09T12:07:20.894Z,4.10
2023-02-09T12:10:29.691Z,4.40
2023-02-09T12:13:30.196Z,4.20
2023-02-09T12:16:19.729Z,4.00
2023-02-09T12:19:06.509Z,4.00
2023-02-09T12:21:51.561Z,4.20
2023-02-09T12:24:40.098Z,4.20
2023-02-09T12:27:26.852Z,4.50
2023-02-09T12:30:40.154Z,4.50
2023-02-09T12:33:25.746Z,4.30
2023-02-09T12:36:12.539Z,4.40
2023-02-09T12:39:07.891Z,4.50
2023-02-09T12:41:53.465Z,4.40
2023-02-09T12:44:54.282Z,4.50
2023-02-09T12:47:57.633Z,4.70
2023-02-09T12:50:42.738Z,4.70
2023-02-09T12:53:40.206Z,4.80
2023-02-09T12:56:28.845Z,5.10
2023-02-09T12:59:17.148Z,5.00
2023-02-09T13:02:08.362Z,4.90
2023-02-09T13:05:17.010Z,5.00
2023-02-09T13:08:09.065Z,5.10
2023-02-09T13:11:14.389Z,5.60
2023-02-09T13:14:04.253Z,5.60
2023-02-09T13:17:20.195Z,5.50
2023-02-09T13:20:27.294Z,5.50
2023-02-09T13:23:40.980Z,5.20
2023-02-09T13:26:30.423Z,5.40
2023-02-09T13:29:21.383Z,5.50
2023-02-09T13:32:16.497Z,5.30
2023-02-09T13:35:12.631Z,5.30
2023-02-09T13:38:15.841Z,5.40
2023-02-09T13:41:02.036Z,5.40
2023-02-09T13:43:47.613Z,5.50
2023-02-09T13:46:35.141Z,5.50
2023-02-09T13:49:23.796Z,5.70
2023-02-09T13:52:19.883Z,5.60
2023-02-09T13:55:21.446Z,5.60
2023-02-09T13:58:08.923Z,5.70
2023-02-09T14:00:58.388Z,6.00
2023-02-09T14:03:57.943Z,6.00
2023-02-09T14:06:52.166Z,6.20
2023-02-09T14:09:46.820Z,6.30
2023-02-09T14:12:59.696Z,6.00
2023-02-09T14:16:06.876Z,6.10
2023-02-09T14:19:00.442Z,6.10
2023-02-09T14:21:46.355Z,6.20
2023-02-09T14:24:44.735Z,6.40
2023-02-09T14:27:32.965Z,7.00
2023-02-09T14:30:27.146Z,8.00
2023-02-09T14:33:22.143Z,7.60
2023-02-09T14:36:28.909Z,7.20
2023-02-09T14:39:17.027Z,7.10
2023-02-09T14:42:08.551Z,7.10
2023-02-09T14:44:56.167Z,7.10
2023-02-09T14:47:43.924Z,7.10
2023-02-09T14:50:29.521Z,7.20
2023-02-09T14:53:16.616Z,7.10
2023-02-09T14:56:02.045Z,7.00
2023-02-09T14:58:47.543Z,7.20
2023-02-09T15:01:33.117Z,7.30
2023-02-09T15:04:18.828Z,7.40
2023-02-09T15:07:04.081Z,7.60
2023-02-09T15:09:49.748Z,7.60
2023-02-09T15:12:34.870Z,7.40
2023-02-09T15:15:22.154Z,7.00
2023-02-09T15:18:14.509Z,7.00
2023-02-09T15:20:59.962Z,6.90
2023-02-09T15:23:45.371Z,6.80
2023-02-09T15:26:34.601Z,6.60
2023-02-09T15:29:20.211Z,6.70
2023-02-09T15:32:16.809Z,6.90
2023-02-09T15:35:02.213Z,7.00
2023-02-09T15:37:52.246Z,7.10
2023-02-09T15:41:00.699Z,6.90
2023-02-09T15:44:04.392Z,6.90
2023-02-09T15:47:08.164Z,6.70
2023-02-09T15:49:53.594Z,6.60
2023-02-09T15:52:39.071Z,6.50
2023-02-09T15:55:26.591Z,6.30
2023-02-09T15:58:18.945Z,6.20
2023-02-09T16:01:04.982Z,6.10
2023-02-09T16:03:50.209Z,6.00
2023-02-09T16:06:35.744Z,6.00
2023-02-09T16:09:27.695Z,5.90
2023-02-09T16:12:12.879Z,5.80
2023-02-09T16:14:58.158Z,5.70
2023-02-09T16:17:43.770Z,5.70
2023-02-09T16:20:29.109Z,5.60
2023-02-09T16:23:21.030Z,5.50
2023-02-09T16:26:06.451Z,5.40
2023-02-09T16:28:52.438Z,5.30
2023-02-09T16:31:37.824Z,5.20
2023-02-09T16:34:23.049Z,5.10
2023-02-09T16:37:08.383Z,5.00
2023-02-09T16:39:55.304Z,4.90
2023-02-09T16:42:40.612Z,4.80
2023-02-09T16:45:30.423Z,4.70
2023-02-09T16:48:30.177Z,4.60
2023-02-09T16:51:15.850Z,4.50
2023-02-09T16:54:01.209Z,4.50
2023-02-09T16:56:53.988Z,4.40
2023-02-09T16:59:40.053Z,4.40
2023-02-09T17:02:36.614Z,4.30
2023-02-09T17:05:34.966Z,4.20
2023-02-09T17:08:32.032Z,4.20
2023-02-09T17:11:21.993Z,4.20
2023-02-09T17:14:07.371Z,4.10
2023-02-09T17:16:53.696Z,4.10
2023-02-09T17:19:47.246Z,4.00
2023-02-09T17:22:33.437Z,3.90
2023-02-09T17:25:20.946Z,3.80
2023-02-09T17:28:06.062Z,3.80
2023-02-09T17:30:56.446Z,3.70
2023-02-09T17:33:41.904Z,3.70
2023-02-09T17:36:31.947Z,3.60
2023-02-09T17:39:18.947Z,3.60
2023-02-09T17:42:04.475Z,3.70
2023-02-09T17:44:50.759Z,3.60
2023-02-09T17:47:36.105Z,3.50
2023-02-09T17:50:22.726Z,3.50
2023-02-09T17:53:14.921Z,3.50
2023-02-09T17:56:00.364Z,3.40
2023-02-09T17:58:47.674Z,3.40
2023-02-09T18:01:33.285Z,3.40
2023-02-09T18:04:22.108Z,3.30
2023-02-09T18:07:07.144Z,3.30
2023-02-09T18:09:54.342Z,3.20
2023-02-09T18:12:40.075Z,3.10
2023-02-09T18:15:28.725Z,3.00
2023-02-09T18:18:14.363Z,2.90
2023-02-09T18:21:01.579Z,2.90
2023-02-09T18:23:47.115Z,2.80
2023-02-09T18:26:33.583Z,2.80
2023-02-09T18:29:22.679Z,3.00
2023-02-09T18:32:10.427Z,2.80
2023-02-09T18:34:56.085Z,2.70
2023-02-09T18:37:41.485Z,2.70
2023-02-09T18:40:26.915Z,2.70
2023-02-09T18:43:14.585Z,2.70
2023-02-09T18:46:01.027Z,2.70
2023-02-09T18:48:46.834Z,2.70
2023-02-09T18:51:32.477Z,2.70
2023-02-09T18:54:18.175Z,2.70
2023-02-09T18:57:03.199Z,2.60
2023-02-09T18:59:48.713Z,2.60
2023-02-09T19:02:34.236Z,2.50
2023-02-09T19:05:19.849Z,2.40
2023-02-09T19:08:07.281Z,2.30
2023-02-09T19:10:52.801Z,2.20
2023-02-09T19:13:38.312Z,2.10
2023-02-09T19:16:23.745Z,2.10
2023-02-09T19:19:09.391Z,2.20
2023-02-09T19:21:56.745Z,2.30
2023-02-09T19:24:42.902Z,2.30
2023-02-09T19:27:29.580Z,2.30
2023-02-09T19:30:21.336Z,2.30
2023-02-09T19:33:06.206Z,2.40
2023-02-09T19:35:59.355Z,2.20
2023-02-09T19:38:44.462Z,2.20
2023-02-09T19:41:30.074Z,2.10
2023-02-09T19:44:15.779Z,2.10
2023-02-09T19:47:01.313Z,2.00
2023-02-09T19:49:46.472Z,2.00
2023-02-09T19:52:31.865Z,2.10
2023-02-09T19:55:17.107Z,2.00
2023-02-09T19:58:02.593Z,2.00
2023-02-09T20:00:49.402Z,2.00
2023-02-09T20:03:36.195Z,2.00
2023-02-09T20:06:21.344Z,2.00
2023-02-09T20:09:06.897Z,1.90
2023-02-09T20:11:52.100Z,1.90
2023-02-09T20:14:38.122Z,1.80
2023-02-09T20:17:23.135Z,1.80
2023-02-09T20:20:08.933Z,1.60
2023-02-09T20:22:54.116Z,1.60
2023-02-09T20:25:43.381Z,1.60
2023-02-09T20:28:28.646Z,1.70
2023-02-09T20:31:21.598Z,1.60
2023-02-09T20:34:10.030Z,1.60
2023-02-09T20:36:57.288Z,1.60
2023-02-09T20:39:42.746Z,1.60
2023-02-09T20:42:46.811Z,1.50
2023-02-09T20:45:50.774Z,1.50
2023-02-09T20:48:36.043Z,1.60
2023-02-09T20:51:21.639Z,1.60
2023-02-09T20:54:07.102Z,1.60
2023-02-09T20:56:52.322Z,1.70
2023-02-09T20:59:37.719Z,1.50
2023-02-09T21:02:23.156Z,1.50
2023-02-09T21:05:08.859Z,1.50
2023-02-09T21:07:54.289Z,1.40
2023-02-09T21:10:40.254Z,1.30
2023-02-09T21:13:25.751Z,1.40
2023-02-09T21:16:15.308Z,1.40
2023-02-09T21:19:00.862Z,1.30
2023-02-09T21:21:45.899Z,1.40
2023-02-09T21:24:31.132Z,1.40
2023-02-09T21:27:16.645Z,1.40
2023-02-09T21:30:02.111Z,1.40
2023-02-09T21:32:47.672Z,1.40
2023-02-09T21:35:33.105Z,1.30
2023-02-09T21:38:18.508Z,1.20
2023-02-09T21:41:48.598Z,1.30
2023-02-09T21:44:36.795Z,1.30
2023-02-09T21:47:30.172Z,1.20
2023-02-09T21:50:15.606Z,1.20
2023-02-09T21:53:01.966Z,1.10
2023-02-09T21:55:47.271Z,1.10
2023-02-09T21:58:32.655Z,1.20
2023-02-09T22:01:18.089Z,1.30
2023-02-09T22:04:04.012Z,1.20
2023-02-09T22:06:49.613Z,1.20
2023-02-09T22:09:34.796Z,1.10
2023-02-09T22:12:20.373Z,1.00
2023-02-09T22:15:06.477Z,1.10
2023-02-09T22:17:51.987Z,1.10
2023-02-09T22:20:41.776Z,1.10
2023-02-09T22:23:27.133Z,1.10
2023-02-09T22:26:13.841Z,1.10
2023-02-09T22:28:59.440Z,1.10
2023-02-09T22:31:45.447Z,1.10
2023-02-09T22:34:30.884Z,1.00
2023-02-09T22:37:16.161Z,1.00
2023-02-09T22:40:01.598Z,0.80
2023-02-09T22:42:47.139Z,0.80
2023-02-09T22:45:32.399Z,0.80
2023-02-09T22:48:17.848Z,0.80
2023-02-09T22:51:03.263Z,0.80
2023-02-09T22:53:48.719Z,0.80
2023-02-09T22:56:34.410Z,0.80
2023-02-09T22:59:19.557Z,0.70
2023-02-09T23:02:05.609Z,0.70
2023-02-09T23:04:51.272Z,0.70
2023-02-09T23:07:37.106Z,0.80
2023-02-09T23:13:08.686Z,0.70
2023-02-09T23:15:54.077Z,0.50
2023-02-09T23:18:40.491Z,0.40
2023-02-09T23:21:32.253Z,0.50
2023-02-09T23:24:21.820Z,0.50
2023-02-09T23:27:07.315Z,0.40
2023-02-09T23:29:55.174Z,0.40
2023-02-09T23:32:40.614Z,0.40
2023-02-09T23:35:26.033Z,0.40
2023-02-09T23:38:11.402Z,0.30
2023-02-09T23:40:56.769Z,0.40
2023-02-09T23:43:42.721Z,0.40
2023-02-09T23:57:32.460Z,0.40
